Πλησιέστερες Αναφορές METAR

 

LGTS - Thessaloniki/Makedonia-Elev 7m
Distance from station: Ν 13km
Ενημερώθηκε: 21/01/2020 23:20
Αίθριος
Αίθριος
 Ανεμος από varies
Ανεμος: varies 6 km/h
Θερμοκρασία: -1°C
Σημείο Δρόσου: -5°C
Υγρασία: 75%
Βαρόμετρο: 1036 hPa
Συνθήκες: Αίθριος
Visibility: greater than 10 km
2020/01/21 21:20 LGTS 212120Z VRB03KT CAVOK M01/M05 Q1036 NOSIG
LGAV - Athens/Elef. Venizelos-Elev 94m
Distance from station: ΝΝΑ 312km
Ενημερώθηκε: 21/01/2020 23:20
Few Clouds
Few Clouds
 Ανεμος από Β
Ανεμος: Β 11 km/h
Θερμοκρασία: 5°C
Wind Chill: 2°C
Σημείο Δρόσου: 0°C
Υγρασία: 70%
Βαρόμετρο: 1035 hPa
Clouds: Few Clouds
Visibility: 10 km
Cloud details: Few Clouds 914 m
2020/01/21 21:20 LGAV 212120Z 01006KT 9999 FEW030 05/M00 Q1035 NOSIG
 
LGAL - Alexandroupolis-Elev 3m
Distance from station: Α 251km
Ενημερώθηκε: 21/01/2020 21:20
Μη Ενημερωμένο!
Αίθριος
Αίθριος
 Ανεμος από Β
Ανεμος: Β 7 km/h
Θερμοκρασία: -2°C
Wind Chill: -6°C
Σημείο Δρόσου: -4°C
Υγρασία: 86%
Βαρόμετρο: 1037 hPa
Συνθήκες: Αίθριος
Visibility: greater than 10 km
2020/01/21 19:20 LGAL 211920Z 01004KT CAVOK M02/M04 Q1037
LGKV - Kavala/Crysoupolis-Elev 5m
Distance from station: ΑΒΑ 144km
Ενημερώθηκε: 21/01/2020 22:50
Αίθριος
Αίθριος
 Ανεμος από ΒΑ
Ανεμος: ΒΑ 11 km/h
Θερμοκρασία: 1°C
Wind Chill: -2°C
Σημείο Δρόσου: -2°C
Υγρασία: 81%
Βαρόμετρο: 1036 hPa
Συνθήκες: Αίθριος
Visibility: greater than 10 km
2020/01/21 20:50 LGKV 212050Z 04006KT CAVOK 01/M02 Q1036
 
LGSK - Skiathos Island-Elev 15m
Distance from station: ΝΝΑ 168km
Ενημερώθηκε: 21/01/2020 15:50
Μη Ενημερωμένο!
Μερικώς νεφελώδης
Μερικώς νεφελώδης
 Ανεμος από ΒΒΔ
Ανεμος: ΒΒΔ 7 km/h
Θερμοκρασία: 9°C
Wind Chill: 8°C
Σημείο Δρόσου: 2°C
Υγρασία: 62%
Βαρόμετρο: 1038 hPa
Clouds: Μερικώς νεφελώδης
Visibility: 10 km
Cloud details: Μερικώς νεφελώδης 914 m
2020/01/21 13:50 LGSK 211350Z 34004KT 9999 SCT030 09/02 Q1038
LGLM - Limnos Island-Elev 5m
Distance from station: ΑΝΑ 210km
Ενημερώθηκε: 21/01/2020 22:50
Αίθριος
Αίθριος
 Ανεμος από calm
Ανεμος: Απνοια
Θερμοκρασία: 1°C
Σημείο Δρόσου: -2°C
Υγρασία: 81%
Βαρόμετρο: 1036 hPa
Συνθήκες: Αίθριος
Visibility: greater than 10 km
2020/01/21 20:50 LGLM 212050Z 00000KT CAVOK 01/M02 Q1036
 
LGMT - Mitilini Island-Elev 17m
Distance from station: ΑΝΑ 358km
Ενημερώθηκε: 21/01/2020 22:20
Μη Ενημερωμένο!
Few Clouds
Few Clouds
 Ανεμος από ΒΒΔ
Ανεμος: ΒΒΔ 15 km/h
Θερμοκρασία: 5°C
Wind Chill: 2°C
Σημείο Δρόσου: 2°C
Υγρασία: 81%
Βαρόμετρο: 1035 hPa
Clouds: Few Clouds
Visibility: 10 km
Cloud details: Few Clouds 762 m
2020/01/21 20:20 LGMT 212020Z 33008KT 300V360 9999 FEW025 05/02 Q1035
LGSY - Skiros Island-Elev 15m
Distance from station: ΝΑ 227km
Ενημερώθηκε: 21/01/2020 20:50
Μη Ενημερωμένο!
Few Clouds
Few Clouds
 Ανεμος από Β
Ανεμος: Β 17 km/h
Θερμοκρασία: 8°C
Wind Chill: 5°C
Σημείο Δρόσου: -1°C
Υγρασία: 53%
Βαρόμετρο: 1036 hPa
Clouds: Few Clouds
Visibility: 10 km
Cloud details: Few Clouds 610 m
2020/01/21 18:50 LGSY 211850Z 35009KT 9999 FEW020 08/M01 Q1036 BLU
 
LGKZ - Kozani-Elev 628m
Distance from station: ΔΝΔ 102km
Ενημερώθηκε: 21/01/2020 23:20

 Ανεμος από ΒΔ
Ανεμος: ΒΔ 9 km/h
Θερμοκρασία: 0°C
Wind Chill: -3°C
Σημείο Δρόσου: -9°C
Υγρασία: 51%
Βαρόμετρο: 1036 hPa
2020/01/21 21:20 LGKZ 212120Z AUTO 31005KT 280V350 //// // ////// 00/M09 Q1036 RE//
LGIO - Ioannina-Elev 476m
Distance from station: ΔΝΔ 209km
Ενημερώθηκε: 21/01/2020 23:20

 Ανεμος από varies
Ανεμος: varies 2 km/h
Θερμοκρασία: -1°C
Σημείο Δρόσου: -3°C
Υγρασία: 86%
Βαρόμετρο: 1034 hPa
2020/01/21 21:20 LGIO 212120Z AUTO VRB01KT //// // ////// M01/M03 Q1034 RE//
 
LGZA - Zakinthos-Elev 3m
Distance from station: ΝΝΔ 367km
Ενημερώθηκε: 21/01/2020 19:50
Μη Ενημερωμένο!
Αίθριος
Αίθριος
 Ανεμος από calm
Ανεμος: Απνοια
Θερμοκρασία: 7°C
Σημείο Δρόσου: 3°C
Υγρασία: 76%
Βαρόμετρο: 1035 hPa
Συνθήκες: Αίθριος
Visibility: greater than 10 km
2020/01/21 17:50 LGZA 211750Z 00000KT CAVOK 07/03 Q1035
LGKR - Corfu Island-Elev 2m
Distance from station: ΔΝΔ 282km
Ενημερώθηκε: 21/01/2020 23:20
Few Clouds
Few Clouds
 Ανεμος από Δ
Ανεμος: Δ 7 km/h
Θερμοκρασία: 6°C
Wind Chill: 4°C
Σημείο Δρόσου: 5°C
Υγρασία: 93%
Βαρόμετρο: 1034 hPa
Clouds: Few Clouds
Visibility: 10 km
Cloud details: Few Clouds 549 m
2020/01/21 21:20 LGKR 212120Z 27004KT 9999 FEW018 06/05 Q1034 NOSIG
 
LGSO - Syros Island-Elev 72m
Distance from station: ΝΝΑ 397km
Ενημερώθηκε: 21/01/2020 23:20
Ασθενής βροχή
Ασθενής βροχή
 Ανεμος από Β
Ανεμος: Β 44 km/h, Ριπή: 67 km/h
Θερμοκρασία: 10°C
Wind Chill: 6°C
Σημείο Δρόσου: 3°C
Υγρασία: 62%
Βαρόμετρο: 1032 hPa
Συνθήκες: Ασθενής βροχή
2020/01/21 21:20 LGSO 212120Z AUTO 36024G36KT 310V030 //// -RA ////// 10/03 Q1032 RE//
LGMK - Mikonos Island-Elev 123m
Distance from station: ΝΝΑ 412km
Ενημερώθηκε: 21/01/2020 20:50
Μη Ενημερωμένο!
Μερικώς νεφελώδης
Μερικώς νεφελώδης
 Ανεμος από Β
Ανεμος: Β 44 km/h, Ριπή: 63 km/h
Θερμοκρασία: 8°C
Wind Chill: 3°C
Σημείο Δρόσου: 3°C
Υγρασία: 71%
Βαρόμετρο: 1032 hPa
Clouds: Μερικώς νεφελώδης
Visibility: 10 km
Cloud details: Few Clouds 366 m
Μερικώς νεφελώδης 762 m
2020/01/21 18:50 LGMK 211850Z 35024G34KT 9999 FEW012 SCT025 08/03 Q1032
 
LGSR - Santorini Island-Elev 40m
Distance from station: ΝΝΑ 520km
Ενημερώθηκε: 21/01/2020 19:50
Μη Ενημερωμένο!
Σχεδόν νεφελώδης
Σχεδόν νεφελώδης
 Ανεμος από Β
Ανεμος: Β 31 km/h
Θερμοκρασία: 10°C
Wind Chill: 7°C
Σημείο Δρόσου: 3°C
Υγρασία: 62%
Βαρόμετρο: 1032 hPa
Clouds: Σχεδόν νεφελώδης
Visibility: 10 km
Cloud details: Σχεδόν νεφελώδης 762 m
2020/01/21 17:50 LGSR 211750Z 36017KT 9999 BKN025 10/03 Q1032
LGKL - Kalamata-Elev 8m
Distance from station: Ν 405km
Ενημερώθηκε: 21/01/2020 23:20

 Ανεμος από ΒΔ
Ανεμος: ΒΔ 7 km/h
Θερμοκρασία: 3°C
Wind Chill: 1°C
Σημείο Δρόσου: -1°C
Υγρασία: 75%
Βαρόμετρο: 1034 hPa
2020/01/21 21:20 LGKL 212120Z AUTO 32004KT //// // ////// 03/M01 Q1034 RE//
 
LGIR - Iraklion/Crete-Elev 5m
Distance from station: ΝΝΑ 622km
Ενημερώθηκε: 21/01/2020 23:20
Σχεδόν νεφελώδης
Σχεδόν νεφελώδης
 Ανεμος από Β
Ανεμος: Β 35 km/h
Θερμοκρασία: 11°C
Σημείο Δρόσου: 4°C
Υγρασία: 62%
Βαρόμετρο: 1032 hPa
Clouds: Σχεδόν νεφελώδης
Visibility: 10 km
Cloud details: Few Clouds 610 m
Σχεδόν νεφελώδης 914 m
2020/01/21 21:20 LGIR 212120Z 35019KT 9999 FEW020 BKN030 11/04 Q1032 NOSIG
LGRP - Rhodes-Elev 5m
Distance from station: ΝΑ 649km
Ενημερώθηκε: 21/01/2020 23:20
Few Clouds
Few Clouds
 Ανεμος από ΒΔ
Ανεμος: ΒΔ 13 km/h
Θερμοκρασία: 11°C
Σημείο Δρόσου: 1°C
Υγρασία: 50%
Βαρόμετρο: 1025 hPa
Clouds: Few Clouds
Visibility: 10 km
Cloud details: Few Clouds 549 m
2020/01/21 21:20 LGRP 212120Z 31007KT 9999 FEW018 11/01 Q1025 NOSIG
 
LWOH - Ohrid/FYROM-Elev 761m
Distance from station: ΔΒΔ 188km
Ενημερώθηκε: 21/01/2020 22:00
Μη Ενημερωμένο!
Αίθριος
Αίθριος
 Ανεμος από Β
Ανεμος: Β 6 km/h
Θερμοκρασία: -5°C
Σημείο Δρόσου: -7°C
Υγρασία: 86%
Βαρόμετρο: 1036 hPa
Συνθήκες: Αίθριος
Visibility: greater than 10 km
2020/01/21 20:00 LWOH 212000Z 36003KT CAVOK M05/M07 Q1036
LBSF - Sofia/Bulgaria-Elev 595m
Distance from station: Β 227km
Ενημερώθηκε: 21/01/2020 23:30
Μερικώς νεφελώδης
Μερικώς νεφελώδης
 Ανεμος από Δ
Ανεμος: Δ 13 km/h
Θερμοκρασία: -3°C
Wind Chill: -7°C
Σημείο Δρόσου: -6°C
Υγρασία: 80%
Βαρόμετρο: 1037 hPa
Clouds: Μερικώς νεφελώδης
Visibility: 8 km
2020/01/21 21:30 LBSF 212130Z 28007KT 8000 NSC M03/M06 Q1037 NOSIG
Σημερινά ρεκόρ Μετεωρολογικού Σταθμού
Η Μέγιστη τιμή Βαρόμετρου των 1033.1 hPa ισοφάρισε το ρεκόρ Ετους που σημειώθηκε στις 20/01/2020